Latest Weather Observations for Kingaroy

IDQ60801

Issued at 6:05 pm EST Monday 22 September 2014 (issued every 30 minutes, with the page automatically refreshed every 10 minutes)

About weather observations | Map of weather stations | Latest weather observations for QLD | Other Formats
Station Details ID: 040922 Name: KINGAROY AIRPORT Lat: -26.57 Lon: 151.84 Height: 433.67 m
Data from the previous 72 hours. | See also: Recent months at Kingaroy
Date/Time
EST
Temp
°C
App
Temp
°C
Dew
Point
Rel
Hum
%
Delta-T
°C
Wind Press
QNH
hPa
Press
MSL
hPa
Rain
since 9 am
mm
Dir
 
Spd
km/h
Gust
km/h
Spd
kts
Gust
kts
22/06:00pm 16.2 12.3 8.7 61 3.9 ESE 19 30 10 16 1025.9 1025.0 0.0
22/05:30pm 16.6 13.2 9.1 61 3.9 ESE 17 28 9 15 1025.3 1024.4 0.0
22/05:00pm 17.1 13.5 8.3 56 4.6 ESE 17 24 9 13 1025.4 1024.5 0.0
22/04:30pm 17.6 13.6 8.2 54 4.9 ESE 19 30 10 16 1025.2 1024.3 0.0
22/04:00pm 18.0 13.7 9.4 57 4.6 ESE 22 35 12 19 1025.2 1024.3 0.0
22/03:30pm 18.1 13.5 9.5 57 4.6 E 24 32 13 17 1025.0 1024.0 0.0
22/03:00pm 17.9 13.7 9.8 59 4.4 ESE 22 30 12 16 1025.1 1024.2 0.0
22/02:30pm 17.9 12.6 10.0 60 4.3 ESE 28 41 15 22 1025.0 1024.0 0.0
22/02:00pm 18.2 13.3 9.8 58 4.5 ESE 26 39 14 21 1025.3 1024.4 0.0
22/01:30pm 18.0 13.2 8.8 55 4.9 ESE 24 41 13 22 1025.3 1024.4 0.0
22/01:00pm 18.4 14.4 8.4 52 5.2 ESE 19 28 10 15 1025.4 1024.5 0.0
22/12:30pm 18.6 14.2 8.8 53 5.2 ESE 22 37 12 20 1025.9 1025.0 0.0
22/12:00pm 18.0 12.7 8.6 54 4.9 ESE 26 37 14 20 1026.3 1025.3 0.0
22/11:30am 18.1 13.8 9.2 56 4.8 ESE 22 35 12 19 1026.6 1025.6 0.0
22/11:00am 17.4 12.8 9.6 60 4.2 ESE 24 33 13 18 1026.9 1025.9 0.0
22/10:30am 17.6 12.9 10.5 63 3.9 ESE 26 37 14 20 1027.2 1026.3 0.0
22/10:00am 16.7 13.2 10.8 68 3.2 ESE 20 32 11 17 1027.4 1026.5 0.0
22/09:30am 15.8 12.1 10.1 69 3.1 ESE 20 32 11 17 1027.6 1026.7 0.0
22/09:00am 15.7 11.7 10.5 71 2.8 ESE 22 35 12 19 1027.6 1026.7 1.8
22/08:30am 15.1 12.2 11.1 77 2.2 ESE 17 24 9 13 1027.4 1026.5 1.8
22/08:00am 14.4 10.9 11.0 80 1.8 ESE 20 33 11 18 1027.1 1026.2 1.8
22/07:30am 14.4 11.0 11.4 82 1.6 ESE 20 35 11 19 1026.9 1025.9 1.8
22/07:00am 13.6 9.9 11.5 87 1.1 ESE 22 32 12 17 1026.2 1025.2 1.8
22/06:30am 13.0 11.0 11.4 90 0.9 ESE 13 24 7 13 1025.8 1024.9 1.8
22/06:00am 12.8 10.0 11.2 90 0.9 ESE 17 28 9 15 1025.1 1024.2 1.8
22/05:30am 12.6 9.4 11.3 92 0.7 ESE 19 33 10 18 1024.9 1023.9 1.8
22/05:00am 12.4 9.5 11.0 91 0.7 SE 17 24 9 13 1024.8 1023.8 1.8
22/04:30am 12.6 9.7 11.0 90 0.9 ESE 17 24 9 13 1024.9 1023.9 1.8
22/04:00am 12.5 10.3 10.9 90 0.9 ESE 13 19 7 10 1025.0 1024.0 1.8
22/03:30am 12.7 10.5 10.8 88 1.0 ESE 13 20 7 11 1024.9 1023.9 1.8
22/03:00am 12.7 10.4 10.6 87 1.1 ESE 13 20 7 11 1025.0 1024.0 1.8
22/02:30am 12.8 10.6 10.7 87 1.1 ESE 13 22 7 12 1025.2 1024.3 1.8
22/02:00am 12.8 10.5 10.5 86 1.2 SE 13 24 7 13 1025.3 1024.4 1.8
22/01:30am 13.0 10.7 10.5 85 1.3 ESE 13 20 7 11 1025.9 1025.0 1.8
22/01:00am 13.2 11.0 10.7 85 1.3 ESE 13 22 7 12 1026.4 1025.4 1.8
22/12:30am 13.2 11.0 10.7 85 1.3 ESE 13 20 7 11 1026.7 1025.7 1.8
22/12:00am 13.4 10.9 10.9 85 1.3 ESE 15 20 8 11 1026.8 1025.8 1.8
 
Date/Time
EST
Temp
°C
App
Temp
°C
Dew
Point
Rel
Hum
%
Delta-T
°C
Wind Press
QNH
hPa
Press
MSL
hPa
Rain
since 9 am
mm
Dir
 
Spd
km/h
Gust
km/h
Spd
kts
Gust
kts
21/11:30pm 13.6 11.8 10.9 84 1.5 SE 11 22 6 12 1027.1 1026.2 1.8
21/11:00pm 13.5 12.4 10.7 83 1.5 SE 7 11 4 6 1027.2 1026.3 1.8
21/10:30pm 13.8 11.9 10.4 80 1.8 ESE 11 17 6 9 1027.2 1026.3 1.8
21/10:00pm 14.1 12.3 10.7 80 1.8 ESE 11 15 6 8 1027.1 1026.2 1.8
21/09:30pm 13.9 13.5 11.1 83 1.5 SE 4 7 2 4 1027.2 1026.3 1.8
21/09:00pm 13.9 13.1 11.1 83 1.5 SSE 6 7 3 4 1027.2 1026.3 1.8
21/08:30pm 14.3 13.3 10.9 80 1.8 SE 7 11 4 6 1027.1 1026.2 1.8
21/08:00pm 14.6 12.5 11.0 79 1.9 E 13 17 7 9 1026.9 1025.9 1.8
21/07:30pm 14.5 13.1 10.9 79 1.9 ESE 9 17 5 9 1026.6 1025.6 1.8
21/07:00pm 14.4 12.6 10.8 79 1.9 ESE 11 15 6 8 1025.9 1025.0 1.8
21/06:30pm 14.5 12.0 10.9 79 1.9 E 15 22 8 12 1025.4 1024.5 1.8
21/06:00pm 14.3 11.6 10.5 78 2.0 E 15 20 8 11 1025.0 1024.0 1.8
21/05:30pm 13.7 11.6 11.2 85 1.4 E 13 19 7 10 1024.6 1023.6 1.8
21/05:00pm 14.1 12.7 12.1 88 1.1 ESE 11 15 6 8 1024.2 1023.2 1.4
21/04:30pm 14.4 12.1 11.9 85 1.4 E 15 19 8 10 1024.0 1023.0 0.6
21/04:00pm 15.6 13.3 10.6 72 2.7 SE 13 19 7 10 1023.5 1022.6 0.0
21/03:30pm 16.6 13.0 10.5 67 3.3 ESE 20 26 11 14 1023.2 1022.3 0.0
21/03:00pm 17.9 11.9 8.5 54 4.9 E 30 39 16 21 1023.1 1022.2 0.0
21/02:30pm 18.8 14.4 7.6 48 5.8 E 20 28 11 15 1023.0 1022.0 0.0
21/02:00pm 19.9 14.9 7.9 46 6.3 E 24 35 13 19 1022.9 1021.9 0.0
21/01:30pm 19.6 15.3 7.7 46 6.2 E 20 32 11 17 1023.5 1022.6 0.0
21/01:00pm 19.9 15.6 7.9 46 6.3 E 20 30 11 16 1023.7 1022.7 0.0
21/12:30pm 20.0 14.9 7.7 45 6.5 ESE 24 33 13 18 1023.9 1022.9 0.0
21/12:00pm 20.1 15.3 8.8 48 6.0 E 24 39 13 21 1024.6 1023.6 0.0
21/11:30am 19.7 14.7 8.1 47 6.1 E 24 37 13 20 1025.1 1024.2 0.0
21/11:00am 18.3 13.7 8.3 52 5.2 E 22 33 12 18 1025.8 1024.9 0.0
21/10:30am 17.7 12.0 8.3 54 4.9 E 28 39 15 21 1026.1 1025.1 0.0
21/10:00am 17.1 11.9 9.0 59 4.3 E 26 35 14 19 1025.9 1025.0 0.0
21/09:30am 16.4 12.1 9.3 63 3.8 ESE 22 35 12 19 1026.2 1025.2 0.0
21/09:00am 15.7 11.9 9.8 68 3.1 ESE 20 28 11 15 1026.6 1025.6 0.2
21/08:30am 15.0 12.6 10.2 73 2.6 ESE 13 22 7 12 1026.4 1025.4 0.2
21/08:00am 13.5 11.4 9.6 77 2.0 SE 11 15 6 8 1026.4 1025.4 0.2
21/07:30am 13.1 11.4 9.7 80 1.8 SE 9 15 5 8 1026.1 1025.1 0.2
21/07:00am 12.4 10.2 9.2 81 1.6 SE 11 17 6 9 1025.5 1024.6 0.2
21/06:30am 12.0 10.3 9.9 87 1.1 SSE 9 13 5 7 1025.0 1024.0 0.2
21/06:00am 11.0 9.1 9.1 88 1.0 SSE 9 11 5 6 1024.8 1023.8 0.2
21/05:30am 11.5 10.2 9.2 86 1.2 ESE 6 9 3 5 1024.4 1023.4 0.2
21/05:00am 12.1 10.1 10.0 87 1.1 SE 11 19 6 10 1023.9 1022.9 0.2
21/04:30am 12.0 10.4 10.1 88 1.0 ESE 9 15 5 8 1023.9 1022.9 0.2
21/04:00am 12.5 11.0 10.7 89 1.0 SE 9 13 5 7 1023.9 1022.9 0.2
21/03:30am 12.9 11.8 10.8 87 1.1 ENE 7 13 4 7 1023.8 1022.8 0.2
21/03:00am 13.0 11.6 10.9 87 1.1 SE 9 13 5 7 1023.7 1022.7 0.2
21/02:30am 13.3 11.5 11.0 86 1.2 SE 11 17 6 9 1024.0 1023.0 0.2
21/02:00am 14.2 11.6 10.8 80 1.8 ESE 15 24 8 13 1024.2 1023.2 0.0
21/01:30am 14.2 12.4 10.8 80 1.8 ESE 11 20 6 11 1024.2 1023.2 0.0
21/01:00am 14.4 12.3 11.0 80 1.8 ESE 13 20 7 11 1024.4 1023.4 0.0
21/12:30am 14.6 12.5 11.0 79 2.0 ESE 13 22 7 12 1024.3 1023.3 0.0
21/12:00am 14.6 12.5 11.2 80 1.8 ESE 13 24 7 13 1024.4 1023.4 0.0
 
Date/Time
EST
Temp
°C
App
Temp
°C
Dew
Point
Rel
Hum
%
Delta-T
°C
Wind Press
QNH
hPa
Press
MSL
hPa
Rain
since 9 am
mm
Dir
 
Spd
km/h
Gust
km/h
Spd
kts
Gust
kts
20/11:30pm 14.7 11.9 11.3 80 1.9 ESE 17 22 9 12 1024.3 1023.3 0.0
20/11:00pm 15.3 11.9 11.1 76 2.3 ESE 20 28 11 15 1024.4 1023.4 0.0
20/10:30pm 15.3 12.1 11.3 77 2.2 ESE 19 32 10 17 1024.3 1023.3 0.0
20/10:00pm 15.3 12.1 11.9 80 1.9 E 20 28 11 15 1024.2 1023.2 0.0
20/09:30pm 15.6 12.6 12.0 79 2.0 ESE 19 28 10 15 1023.9 1022.9 0.0
20/09:00pm 15.9 13.5 12.6 81 1.8 E 17 24 9 13 1023.8 1022.8 0.0
20/08:30pm 15.9 13.1 12.5 80 1.9 ESE 19 26 10 14 1023.4 1022.5 0.0
20/08:00pm 16.0 14.3 12.6 80 1.9 ESE 13 24 7 13 1022.9 1021.9 0.0
20/07:30pm 16.0 14.3 12.4 79 2.0 ESE 13 17 7 9 1022.5 1021.5 0.0
20/07:00pm 16.6 14.3 11.9 74 2.6 ESE 15 26 8 14 1021.6 1020.6 0.0
20/06:30pm 17.2 14.5 11.7 70 3.1 E 17 26 9 14 1020.9 1019.9 0.0
20/06:00pm 17.8 15.1 11.8 68 3.4 E 17 26 9 14 1020.1 1019.1 0.0
20/05:30pm 18.3 13.9 11.6 65 3.7 E 26 35 14 19 1019.4 1018.4 0.0
20/05:00pm 19.6 15.9 11.6 60 4.5 ESE 22 32 12 17 1018.8 1017.7 0.0
20/04:30pm 21.7 18.4 9.6 46 6.6 ESE 17 24 9 13 1018.0 1017.0 0.0
20/04:00pm 22.1 19.8 8.9 43 7.2 SE 11 24 6 13 1017.7 1016.7 0.0
20/03:30pm 23.3 21.5 7.0 35 8.6 ESE 6 13 3 7 1017.4 1016.4 0.0
20/03:00pm 23.9 20.9 7.9 36 8.6 ESE 13 19 7 10 1017.4 1016.4 0.0
20/02:30pm 23.0 20.7 5.0 31 9.2 SSW 6 11 3 6 1017.5 1016.5 0.0
20/02:00pm 23.8 20.9 4.7 29 9.7 W 9 17 5 9 1017.8 1016.8 0.0
20/01:30pm 24.0 21.1 4.9 29 9.8 WNW 9 13 5 7 1018.1 1017.1 0.0
20/01:00pm 23.1 20.3 6.8 35 8.6 NNE 11 19 6 10 1018.5 1017.5 0.0
20/12:30pm 22.9 20.4 6.6 35 8.5 WSW 9 15 5 8 1019.0 1017.9 0.0
20/12:00pm 21.6 20.0 10.1 48 6.4 WSW 9 15 5 8 1019.8 1018.8 0.0
20/11:30am 21.4 19.6 9.3 46 6.6 NNW 9 15 5 8 1020.2 1019.2 0.0
20/11:00am 22.0 19.9 9.9 46 6.7 N 11 17 6 9 1020.6 1019.6 0.0
20/10:30am 20.2 18.4 10.9 55 5.2 NW 11 19 6 10 1021.1 1020.2 0.0
20/10:00am 19.4 17.4 10.1 55 5.1 WNW 11 20 6 11 1021.5 1020.5 0.0
20/09:30am 18.5 15.9 10.8 61 4.2 NW 15 20 8 11 1021.8 1020.8 0.0
20/09:00am 18.1 16.8 11.4 65 3.7 WNW 9 13 5 7 1022.0 1021.0 0.0
20/08:30am 18.6 17.5 11.9 65 3.8 N 9 13 5 7 1022.0 1021.0 0.0
20/08:00am 16.6 16.6 11.3 71 2.9 WSW 2 6 1 3 1021.7 1020.7 0.0
20/07:30am 13.0 11.8 9.6 80 1.8 S 6 7 3 4 1021.5 1020.5 0.0
20/07:00am 9.9 9.4 7.8 87 1.0 CALM 0 0 0 0 1021.0 1020.1 0.0
20/06:30am 7.9 7.0 6.0 88 0.9 CALM 0 0 0 0 1020.7 1019.7 0.0
20/06:00am 6.8 5.6 4.8 87 0.9 CALM 0 0 0 0 1020.3 1019.3 0.0
20/05:30am 6.6 4.4 5.2 91 0.6 S 6 7 3 4 1020.1 1019.1 0.0
20/05:00am 6.5 5.3 4.8 89 0.8 CALM 0 7 0 4 1019.8 1018.8 0.0
20/04:30am 7.2 6.2 5.7 90 0.7 CALM 0 0 0 0 1019.5 1018.5 0.0
20/04:00am 7.6 6.7 6.1 90 0.7 CALM 0 0 0 0 1019.3 1018.3 0.0
20/03:30am 7.9 7.0 6.0 88 0.9 CALM 0 0 0 0 1019.4 1018.4 0.0
20/03:00am 8.4 6.5 6.7 89 0.8 S 6 9 3 5 1019.5 1018.5 0.0
20/02:30am 8.3 7.4 6.1 86 1.0 CALM 0 4 0 2 1019.7 1018.7 0.0
20/02:00am 10.1 8.1 8.5 90 0.8 S 9 11 5 6 1019.8 1018.8 0.0
20/01:30am 10.8 9.3 8.6 86 1.1 SSW 6 9 3 5 1019.8 1018.8 0.0
20/01:00am 11.6 11.0 8.8 83 1.4 E 2 7 1 4 1019.9 1018.9 0.0
20/12:30am 12.8 11.9 9.3 79 1.8 ENE 4 6 2 3 1020.0 1019.0 0.0
20/12:00am 13.2 11.8 9.5 78 1.9 ENE 7 9 4 5 1020.1 1019.1 0.0
 
Date/Time
EST
Temp
°C
App
Temp
°C
Dew
Point
Rel
Hum
%
Delta-T
°C
Wind Press
QNH
hPa
Press
MSL
hPa
Rain
since 9 am
mm
Dir
 
Spd
km/h
Gust
km/h
Spd
kts
Gust
kts
19/11:30pm 13.3 11.7 8.8 74 2.3 E 7 11 4 6 1020.2 1019.2 0.0
19/11:00pm 12.7 11.6 8.4 75 2.2 S 4 7 2 4 1020.3 1019.3 0.0
19/10:30pm 14.9 13.4 9.3 69 2.9 ENE 7 15 4 8 1020.2 1019.2 0.0
19/10:00pm 15.1 13.7 9.5 69 2.9 E 7 11 4 6 1020.3 1019.3 0.0
19/09:30pm 15.7 14.3 9.6 67 3.2 ENE 7 13 4 7 1020.3 1019.3 0.0
19/09:00pm 16.2 14.0 9.2 63 3.7 E 11 17 6 9 1020.2 1019.2 0.0
19/08:30pm 17.0 14.8 9.2 60 4.1 ENE 11 24 6 13 1020.1 1019.1 0.0
19/08:00pm 17.0 14.2 8.7 58 4.4 E 13 19 7 10 1019.7 1018.7 0.0
19/07:30pm 12.6 10.5 -0.6 40 5.5 CALM 0 0 0 0 1019.1 1018.1 0.0
19/07:00pm 14.6 11.2 -1.9 32 6.8 ESE 6 7 3 4 1018.6 1017.6 0.0
19/06:30pm 17.5 13.7 -3.8 23 8.7 SE 7 9 4 5 1018.1 1017.1 0.0

Other Formats:

Comma delimited format used in spreadsheet applications
http://www.bom.gov.au/fwo/IDQ60801/IDQ60801.94549.axf

JavaScript Object Notation format (JSON) in row-major order
http://www.bom.gov.au/fwo/IDQ60801/IDQ60801.94549.json